Pagina principale
METAR-TAF:

METAR-TAF

Aeroporti :

Dar es Salaam, Tanzania

Aeroporto Internazionale Julius Nyerere

latitudine: 06-52S, longitudine: 039-12E, altezza: 55 m

Osservazione

Il bollettino è stato emesso 1 ora e 15 minuti fa, alle 04:00 UTC
Vento calmo
Temperature 23°C
Umidità 100%
Pressione 1012 hPa
Visibilità: 2000 m
Nubi sparse ad un'altezza di 1400 ft
Nebbia poco profondo

METAR: HTDA 180400Z 00000KT 2000 MIFG SCT014 23/23 Q1012 TEMPO 2000 MIFG

Ora: 08:15 (05:15 UTC)

Previsione

Il bollettino è stato emesso 6 ore e 15 minuti fa, alle 23:00 UTC
Previsione valida dal 18 alle 00 UTC al 19 alle 06 UTC
Vento 5 kt da nord-est
Visibilità 10 km o più
Nubi sparse ad un'altezza di 1600 ft
Evoluzione graduale
dal 18 alle 06 UTC al 18 alle 09 UTC
Vento 15 kt da nord
Nuvoloso ad un'altezza di 1800 ft

TAF: HTDA 172300Z 1800/1906 04005KT 9999 SCT016 BECMG 1806/1809 01015KT BKN018

Osservazioni e previsioni meteorologiche di più di 4000 aeroporti (messaggi METAR e TAF).

Le stazioni disponibili sono rappresentate dai dischi gialli e rossi sulla carta.

Puntare il mouse per vedere il nome della stazione.

Clicca sopra per visualizzare le osservazioni e previsioni meteorologiche.

Per cambiare la mappa : fare clic sui pulsanti verdi con una croce nera per ingrandire, il pulsante verde con un trattino per diminuire, o sulla freccia verde per le mappe adiacenti.


METAR-TAF: